Time;durP1;ratioP1;P1;durP2;ratioP2;P2;SDS_P1;SDS_P2;PMS_P1;PMS_P2;Temp;Humidity;BMP_temperature;BMP_pressure;BME280_temperature;BME280_humidity;BME280_pressure;Samples;Min_cycle;Max_cycle;Signal;HPM_P1;HPM_P2
2021/03/15 00:00:51;;;;;;;46.30;20.72;;;;;;;7.81;86.23;97871.16;1724931;80;21330;-89
2021/03/15 00:03:21;;;;;;;36.10;19.73;;;;;;;7.77;85.60;97879.45;1700795;81;21126;-85
2021/03/15 00:05:50;;;;;;;34.13;18.52;;;;;;;7.71;87.68;97868.86;1694450;80;21306;-89
2021/03/15 00:08:19;;;;;;;31.87;16.25;;;;;;;7.71;85.69;97866.27;1691844;83;21634;-89
2021/03/15 00:10:46;;;;;;;33.15;17.27;;;;;;;7.71;86.07;97864.14;1743580;79;21139;-84
2021/03/15 00:13:15;;;;;;;32.95;17.10;;;;;;;7.71;86.08;97865.44;1711091;77;21177;-87
2021/03/15 00:15:43;;;;;;;31.85;18.05;;;;;;;7.72;85.50;97864.09;1691799;81;21253;-85
2021/03/15 00:18:11;;;;;;;33.70;16.40;;;;;;;7.70;86.14;97855.55;1690248;81;21466;-86
2021/03/15 00:20:39;;;;;;;35.73;17.90;;;;;;;7.68;85.48;97852.16;1704357;81;21456;-86
2021/03/15 00:23:06;;;;;;;30.37;17.25;;;;;;;7.71;85.68;97846.88;1734628;82;21209;-87
2021/03/15 00:25:33;;;;;;;34.27;16.95;;;;;;;7.71;86.22;97836.52;1764281;81;21145;-87
2021/03/15 00:28:01;;;;;;;36.45;18.15;;;;;;;7.72;85.37;97834.80;1775623;81;21149;-89
2021/03/15 00:30:28;;;;;;;36.90;17.20;;;;;;;7.73;85.72;97839.90;1760369;81;21161;-86
2021/03/15 00:32:56;;;;;;;34.05;18.17;;;;;;;7.75;85.93;97848.45;1773901;81;21288;-89
2021/03/15 00:35:23;;;;;;;29.65;16.12;;;;;;;7.80;86.20;97847.45;1757432;81;21142;-88
2021/03/15 00:37:51;;;;;;;30.75;15.65;;;;;;;7.83;86.49;97839.60;1774549;81;21159;-89
2021/03/15 00:40:21;;;;;;;33.30;17.45;;;;;;;7.86;85.96;97836.89;1767522;79;21407;-89
2021/03/15 00:42:51;;;;;;;32.00;17.50;;;;;;;7.86;85.09;97833.88;1707418;78;21153;-90
2021/03/15 00:45:24;;;;;;;31.90;17.45;;;;;;;7.82;84.96;97827.55;1730187;81;21174;-86
2021/03/15 00:47:53;;;;;;;37.65;18.20;;;;;;;7.79;87.21;97831.55;1756464;79;21174;-89
2021/03/15 00:50:29;;;;;;;35.28;17.80;;;;;;;7.76;87.26;97838.98;1758702;78;21237;-88
2021/03/15 00:52:57;;;;;;;33.35;18.70;;;;;;;7.75;85.00;97837.27;1731492;79;21247;-84
2021/03/15 00:55:26;;;;;;;35.38;19.50;;;;;;;7.72;86.34;97824.45;1729440;79;21781;-88
2021/03/15 00:57:54;;;;;;;36.00;20.23;;;;;;;7.71;86.99;97821.00;1728561;81;21176;-85
2021/03/15 01:00:30;;;;;;;32.40;19.50;;;;;;;7.72;87.14;97820.12;1707022;81;21278;-84
2021/03/15 01:03:06;;;;;;;;;;;;;;;7.71;86.76;97814.53;1707661;83;21130;-86
2021/03/15 01:05:42;;;;;;;34.80;18.42;;;;;;;7.68;85.82;97809.48;1678161;84;20234;-85
2021/03/15 01:08:14;;;;;;;33.75;18.87;;;;;;;7.64;84.87;97805.31;1677074;83;21167;-85
2021/03/15 01:10:45;;;;;;;33.53;16.55;;;;;;;7.60;86.31;97808.89;1680733;83;21581;-84
2021/03/15 01:13:15;;;;;;;36.05;17.23;;;;;;;7.59;86.83;97808.94;1692997;81;21240;-86
2021/03/15 01:15:45;;;;;;;40.28;19.73;;;;;;;7.57;87.50;97807.23;1735483;80;21565;-84
2021/03/15 01:18:13;;;;;;;35.13;19.77;;;;;;;7.59;87.38;97816.25;1730891;80;21162;-88
2021/03/15 01:20:42;;;;;;;34.48;18.02;;;;;;;7.59;86.46;97812.36;1684860;80;21150;-89
2021/03/15 01:23:10;;;;;;;35.38;18.32;;;;;;;7.57;85.15;97817.58;1687751;82;21344;-88
2021/03/15 01:25:41;;;;;;;39.45;18.17;;;;;;;7.53;87.65;97813.87;1666451;85;21185;-91
2021/03/15 01:28:13;;;;;;;39.05;18.60;;;;;;;7.52;88.78;97811.73;1692030;83;21206;-87
2021/03/15 01:30:43;;;;;;;32.63;19.52;;;;;;;7.52;88.15;97801.81;1706414;83;21166;-89
2021/03/15 01:33:11;;;;;;;38.05;20.20;;;;;;;7.55;87.73;97802.56;1707151;81;21208;-89
2021/03/15 01:35:39;;;;;;;32.25;18.20;;;;;;;7.55;86.78;97797.84;1735917;81;21607;-87
2021/03/15 01:38:08;;;;;;;35.45;18.62;;;;;;;7.53;85.74;97787.55;1755113;80;21188;-91
2021/03/15 01:40:40;;;;;;;36.60;18.23;;;;;;;7.49;86.81;97778.66;1755205;79;21139;-87
2021/03/15 01:43:09;;;;;;;34.85;19.40;;;;;;;7.50;85.59;97772.58;1760908;81;21190;-83
2021/03/15 01:45:37;;;;;;;34.75;18.80;;;;;;;7.45;85.47;97764.15;1725297;80;21124;-89
2021/03/15 01:50:50;;;;;;;34.40;19.73;;;;;;;7.42;86.05;97750.02;1881948;76;23167;-89
2021/03/15 01:53:20;;;;;;;33.83;20.05;;;;;;;7.34;85.92;97752.43;1770019;78;21998;-87
2021/03/15 01:55:48;;;;;;;41.53;21.27;;;;;;;7.30;86.42;97751.27;1766653;81;21275;-86
2021/03/15 01:58:16;;;;;;;35.68;20.82;;;;;;;7.29;85.95;97746.55;1725852;81;21339;-84
2021/03/15 02:00:45;;;;;;;34.90;20.92;;;;;;;7.23;86.43;97747.22;1780814;78;21731;-87
2021/03/15 02:03:14;;;;;;;44.48;20.75;;;;;;;7.18;86.62;97737.01;1727511;79;21218;-89
2021/03/15 02:05:42;;;;;;;41.63;21.12;;;;;;;7.09;87.80;97735.59;1722404;83;21206;-90
2021/03/15 02:08:11;;;;;;;43.05;22.32;;;;;;;7.03;88.54;97739.66;1708223;81;21185;-89
2021/03/15 02:10:38;;;;;;;47.40;22.60;;;;;;;7.02;87.32;97743.13;1693823;83;21169;-90
2021/03/15 02:13:35;;;;;;;48.28;22.75;;;;;;;6.92;87.14;97736.14;1734649;82;21184;-87
2021/03/15 02:16:14;;;;;;;49.05;22.50;;;;;;;6.99;87.53;97756.16;1662838;86;21613;-84
2021/03/15 02:18:55;;;;;;;46.33;21.75;;;;;;;6.72;88.32;97698.46;1718003;81;21134;-87
2021/03/15 02:22:11;;;;;;;51.95;23.07;;;;;;;7.09;88.37;97751.55;1646767;86;21185;-89
2021/03/15 02:25:17;;;;;;;50.95;22.77;;;;;;;7.14;90.00;97749.64;1739030;79;21324;-88
2021/03/15 02:28:21;;;;;;;51.57;22.07;;;;;;;7.19;89.36;97747.77;1664105;85;21187;-89
2021/03/15 02:31:30;;;;;;;61.73;26.17;;;;;;;7.24;87.73;97748.89;1672092;82;21139;-84
2021/03/15 02:34:23;;;;;;;54.48;24.37;;;;;;;7.28;87.11;97756.94;1617226;84;21198;-86
2021/03/15 02:36:51;;;;;;;58.38;25.20;;;;;;;7.29;87.93;97749.14;1662757;82;21319;-85
2021/03/15 02:39:23;;;;;;;56.35;25.82;;;;;;;7.31;87.75;97736.17;1662710;82;21166;-85
2021/03/15 02:41:59;;;;;;;53.53;23.87;;;;;;;7.30;89.85;97730.59;1660056;82;21176;-88
2021/03/15 02:44:32;;;;;;;55.38;24.20;;;;;;;7.30;89.85;97730.59;1660771;82;21740;-88
2021/03/15 02:47:02;;;;;;;59.75;24.70;;;;;;;7.32;89.65;97741.30;1807985;77;21271;-88
2021/03/15 02:49:34;;;;;;;72.67;31.00;;;;;;;7.35;88.24;97742.47;1795361;78;21245;-88
2021/03/15 02:52:04;;;;;;;62.67;28.95;;;;;;;7.36;88.79;97733.83;1777831;79;21249;-84
2021/03/15 02:54:34;;;;;;;56.13;26.73;;;;;;;7.39;88.49;97732.03;1800983;77;21218;-85
2021/03/15 02:57:05;;;;;;;55.08;25.50;;;;;;;7.35;87.73;97728.25;1809398;79;21243;-84
2021/03/15 02:59:37;;;;;;;53.95;27.65;;;;;;;7.31;89.04;97730.54;1803374;78;21074;-84
2021/03/15 03:02:05;;;;;;;52.60;25.05;;;;;;;7.28;88.32;97720.32;1777309;80;21288;-84
2021/03/15 03:04:33;;;;;;;49.58;24.35;;;;;;;7.28;88.54;97724.20;1794348;78;21236;-85
2021/03/15 03:07:03;;;;;;;53.65;25.68;;;;;;;7.26;89.23;97719.53;1733509;79;21141;-84
2021/03/15 03:09:35;;;;;;;52.62;23.50;;;;;;;7.21;90.10;97728.33;1755490;81;21181;-84
2021/03/15 03:12:03;;;;;;;49.08;22.77;;;;;;;7.13;91.34;97726.83;1751174;80;21100;-86
2021/03/15 03:14:31;;;;;;;51.25;23.00;;;;;;;7.11;89.09;97723.91;1747759;80;21103;-84
2021/03/15 03:17:01;;;;;;;52.23;24.95;;;;;;;7.07;89.42;97725.74;1803302;75;21288;-83
2021/03/15 03:19:30;;;;;;;55.98;25.17;;;;;;;7.04;89.46;97719.83;1710555;77;21155;-86
2021/03/15 03:22:00;;;;;;;52.48;24.90;;;;;;;7.02;90.06;97711.28;1679582;80;21170;-86
2021/03/15 03:24:32;;;;;;;53.80;26.10;;;;;;;6.97;90.33;97707.56;1710096;81;21181;-84
2021/03/15 03:27:02;;;;;;;51.45;24.77;;;;;;;6.93;91.14;97702.10;1723787;80;21359;-88
2021/03/15 03:29:31;;;;;;;48.05;23.27;;;;;;;6.91;90.96;97699.56;1681675;84;21131;-84
2021/03/15 03:32:02;;;;;;;54.38;24.67;;;;;;;6.88;91.42;97696.23;1699578;80;21400;-87
2021/03/15 03:34:30;;;;;;;53.92;24.63;;;;;;;6.89;90.26;97697.48;1648125;84;21257;-84
2021/03/15 03:36:57;;;;;;;56.28;25.92;;;;;;;6.90;90.39;97702.19;1681918;83;21145;-88
2021/03/15 03:39:24;;;;;;;52.98;25.02;;;;;;;6.93;89.55;97702.94;1742385;82;21475;-87
2021/03/15 03:41:51;;;;;;;55.30;26.20;;;;;;;6.88;90.76;97707.86;1745105;81;21118;-86
2021/03/15 03:44:19;;;;;;;55.08;25.68;;;;;;;6.87;90.04;97705.73;1745279;82;21319;-83
2021/03/15 03:46:46;;;;;;;56.85;26.17;;;;;;;6.90;90.64;97709.94;1745237;82;21149;-83
2021/03/15 03:49:15;;;;;;;60.70;26.90;;;;;;;6.95;89.59;97711.48;1742970;78;22175;-87
2021/03/15 03:51:49;;;;;;;51.53;25.23;;;;;;;6.94;90.81;97707.23;1745174;81;21265;-83
2021/03/15 03:54:24;;;;;;;51.85;24.43;;;;;;;6.96;90.60;97711.03;1755970;80;21256;-87
2021/03/15 03:57:05;;;;;;;59.40;26.25;;;;;;;7.02;90.50;97707.41;1781262;79;21233;-85
2021/03/15 03:59:35;;;;;;;52.43;25.12;;;;;;;7.07;90.60;97710.23;1781259;79;21222;-85
2021/03/15 04:02:04;;;;;;;56.45;26.77;;;;;;;7.10;89.75;97708.86;1781256;79;21258;-83
2021/03/15 04:04:41;;;;;;;63.90;28.92;;;;;;;7.11;89.71;97710.98;1769126;79;21217;-84
2021/03/15 04:07:11;;;;;;;55.98;26.87;;;;;;;7.08;90.39;97703.33;1750408;80;21118;-83
2021/03/15 04:09:42;;;;;;;57.35;27.05;;;;;;;7.06;89.25;97697.36;1759649;79;21229;-84
2021/03/15 04:12:14;;;;;;;60.60;26.50;;;;;;;7.01;90.44;97686.35;1790638;77;21306;-87
2021/03/15 04:14:52;;;;;;;54.42;27.10;;;;;;;7.01;89.09;97682.48;1764752;78;21204;-84
2021/03/15 04:17:27;;;;;;;54.38;26.07;;;;;;;6.93;89.33;97671.94;1809672;75;21267;-85
2021/03/15 04:20:00;;;;;;;52.27;25.65;;;;;;;6.88;89.62;97670.39;1729946;80;21185;-88
2021/03/15 04:22:31;;;;;;;52.55;26.10;;;;;;;6.86;89.76;97662.69;1743118;79;21278;-90
2021/03/15 04:25:02;;;;;;;53.55;25.32;;;;;;;6.82;90.27;97663.69;1703292;80;21274;-85
2021/03/15 04:27:31;;;;;;;57.85;28.02;;;;;;;6.80;91.00;97667.22;1730963;80;21139;-85
2021/03/15 04:30:01;;;;;;;60.67;27.48;;;;;;;6.75;90.39;97672.09;1715396;80;21318;-85
2021/03/15 04:32:29;;;;;;;58.15;28.80;;;;;;;6.70;90.29;97670.09;1725795;80;21191;-88
2021/03/15 04:34:58;;;;;;;56.58;25.55;;;;;;;6.65;91.43;97669.87;1752035;81;21154;-87
2021/03/15 04:37:27;;;;;;;59.65;27.32;;;;;;;6.64;87.92;97670.30;1710594;82;21269;-83
2021/03/15 04:39:56;;;;;;;57.73;25.65;;;;;;;6.55;91.03;97659.82;1763112;80;21258;-84
2021/03/15 04:42:24;;;;;;;60.20;26.60;;;;;;;6.56;90.12;97656.36;1764785;81;21269;-84
2021/03/15 04:44:52;;;;;;;60.60;24.75;;;;;;;6.57;91.03;97656.74;1722744;81;21322;-84
2021/03/15 04:47:21;;;;;;;53.70;25.40;;;;;;;6.61;89.85;97653.63;1726067;81;21153;-84
2021/03/15 04:49:50;;;;;;;50.05;22.90;;;;;;;6.64;89.06;97648.80;1733184;81;21761;-88
2021/03/15 04:52:18;;;;;;;53.80;23.47;;;;;;;6.59;90.16;97648.95;1747771;81;21235;-84
2021/03/15 04:54:46;;;;;;;48.95;22.45;;;;;;;6.61;90.46;97640.71;1747905;81;21275;-85
2021/03/15 04:57:14;;;;;;;44.83;21.52;;;;;;;6.65;90.94;97636.30;1745854;79;21272;-87
2021/03/15 04:59:45;;;;;;;44.15;20.40;;;;;;;6.69;91.08;97633.55;1749974;80;21256;-85
2021/03/15 05:02:21;;;;;;;43.95;20.08;;;;;;;6.75;90.26;97625.60;1747861;80;21324;-85
2021/03/15 05:04:51;;;;;;;44.88;19.62;;;;;;;6.75;91.30;97624.77;1730737;81;21146;-84
2021/03/15 05:07:20;;;;;;;46.10;20.43;;;;;;;6.80;91.52;97624.14;1732705;82;21643;-84
2021/03/15 05:09:50;;;;;;;43.17;18.77;;;;;;;6.74;92.37;97614.02;1722516;79;21153;-85
2021/03/15 05:12:19;;;;;;;49.13;20.12;;;;;;;6.88;90.72;97614.84;1715260;83;21275;-85
2021/03/15 05:14:48;;;;;;;48.63;19.45;;;;;;;6.90;91.03;97613.92;1735614;80;21267;-84
2021/03/15 05:17:17;;;;;;;41.92;21.85;;;;;;;6.97;91.18;97612.80;1735684;81;21431;-84
2021/03/15 05:19:46;;;;;;;55.88;23.83;;;;;;;7.05;90.75;97610.41;1735667;81;21268;-83
2021/03/15 05:22:14;;;;;;;49.93;22.52;;;;;;;6.95;90.72;97588.76;1735683;81;21272;-82
2021/03/15 05:24:43;;;;;;;49.65;22.02;;;;;;;7.15;90.41;97618.23;1729808;80;21266;-84
2021/03/15 05:27:11;;;;;;;49.27;22.82;;;;;;;7.19;90.54;97606.05;1735793;80;21298;-84
2021/03/15 05:29:41;;;;;;;52.27;24.12;;;;;;;7.25;89.85;97601.50;1735613;80;21284;-85
2021/03/15 05:32:13;;;;;;;48.35;22.50;;;;;;;7.30;89.86;97606.50;1724263;82;21159;-84
2021/03/15 05:34:41;;;;;;;52.33;25.97;;;;;;;7.35;89.92;97608.48;1716773;81;21213;-84
2021/03/15 05:37:10;;;;;;;54.27;26.52;;;;;;;7.40;89.76;97610.89;1719261;82;21121;-85
2021/03/15 05:39:39;;;;;;;62.80;28.98;;;;;;;7.47;89.56;97611.08;1719618;81;21111;-83
2021/03/15 05:42:27;;;;;;;90.47;41.15;;;;;;;7.48;89.26;97608.45;1733869;80;21225;-83
2021/03/15 05:45:22;;;;;;;51.92;24.45;;;;;;;7.50;89.21;97609.66;1735673;81;21264;-85
2021/03/15 05:48:00;;;;;;;47.48;22.20;;;;;;;7.49;88.81;97615.75;1648629;83;21163;-83
2021/03/15 05:51:08;;;;;;;44.63;21.15;;;;;;;7.46;88.39;97609.38;1702438;83;21221;-84
2021/03/15 05:53:44;;;;;;;42.50;21.65;;;;;;;7.37;87.84;97613.98;1718441;80;21283;-86
2021/03/15 05:56:31;;;;;;;41.05;20.27;;;;;;;7.29;88.42;97607.41;1673105;79;21182;-88
2021/03/15 05:59:31;;;;;;;41.73;18.27;;;;;;;7.26;87.95;97617.42;1666495;85;21253;-82
2021/03/15 06:02:55;;;;;;;39.50;18.75;;;;;;;7.17;89.21;97611.27;1578101;90;21312;-83
2021/03/15 06:05:25;;;;;;;39.03;17.98;;;;;;;7.17;88.98;97612.11;1607556;89;21240;-83
2021/03/15 06:08:09;;;;;;;41.23;20.55;;;;;;;7.21;88.82;97615.44;1646997;86;21204;-83
2021/03/15 06:10:51;;;;;;;34.73;18.27;;;;;;;7.30;88.71;97627.18;1699974;82;21364;-83
2021/03/15 06:13:19;;;;;;;29.60;15.60;;;;;;;7.28;89.21;97627.26;1710064;83;21129;-84
2021/03/15 06:15:48;;;;;;;31.97;16.67;;;;;;;7.36;88.83;97622.66;1723279;83;21169;-83
2021/03/15 06:18:17;;;;;;;29.07;15.75;;;;;;;7.37;88.76;97621.73;1694925;83;21252;-83
2021/03/15 06:20:48;;;;;;;35.60;16.50;;;;;;;7.39;88.52;97616.98;1670680;85;21279;-83
2021/03/15 06:23:16;;;;;;;34.00;16.55;;;;;;;7.46;87.96;97606.79;1697473;83;21287;-84
2021/03/15 06:25:47;;;;;;;31.77;17.85;;;;;;;7.40;88.10;97605.30;1697830;85;21311;-81
2021/03/15 06:28:16;;;;;;;28.90;14.70;;;;;;;7.40;88.80;97609.60;1698865;85;21211;-82
2021/03/15 06:30:46;;;;;;;29.20;16.02;;;;;;;7.43;88.26;97611.63;1724663;83;21318;-82
2021/03/15 06:33:18;;;;;;;27.20;16.40;;;;;;;7.47;87.78;97613.66;1699603;83;21305;-83
2021/03/15 06:35:50;;;;;;;30.45;16.05;;;;;;;7.40;88.51;97604.00;1691239;85;21337;-82
2021/03/15 06:38:18;;;;;;;27.95;15.68;;;;;;;7.40;88.09;97601.84;1652808;85;21131;-85
2021/03/15 06:41:44;;;;;;;33.08;16.25;;;;;;;7.39;87.66;97600.17;1644786;84;21228;-86
2021/03/15 06:44:17;;;;;;;30.55;13.85;;;;;;;7.42;87.60;97599.63;1606494;87;21146;-91
2021/03/15 06:46:48;;;;;;;31.70;15.25;;;;;;;7.47;87.17;97600.73;1636944;87;21193;-92
2021/03/15 06:50:14;;;;;;;31.57;14.25;;;;;;;7.46;87.87;97607.66;1667257;83;21212;-89
2021/03/15 06:53:00;;;;;;;27.35;15.15;;;;;;;7.53;88.55;97596.62;1747857;81;21164;-89
2021/03/15 06:55:39;;;;;;;25.00;13.90;;;;;;;7.63;88.16;97599.27;1756773;80;21110;-89
2021/03/15 06:58:33;;;;;;;31.30;14.60;;;;;;;7.70;88.48;97602.45;1664694;85;21633;-90
2021/03/15 07:01:25;;;;;;;26.73;14.65;;;;;;;7.81;88.26;97600.32;1693114;81;21368;-87
2021/03/15 07:04:12;;;;;;;32.03;15.05;;;;;;;7.94;88.20;97600.25;1687537;81;21266;-91
2021/03/15 07:06:45;;;;;;;27.82;14.23;;;;;;;8.06;88.39;97600.23;1709497;80;21587;-90
2021/03/15 07:09:15;;;;;;;;;;;;;;;8.22;87.70;97602.23;1676865;82;21288;-91
2021/03/15 07:11:44;;;;;;;24.10;14.18;;;;;;;8.32;87.70;97599.20;1719247;80;20185;-92
2021/03/15 07:14:58;;;;;;;26.90;15.68;;;;;;;8.41;86.66;97586.36;1711825;81;21198;-91
2021/03/15 07:17:27;;;;;;;28.17;15.15;;;;;;;8.42;86.38;97591.95;1714877;78;21307;-89
2021/03/15 07:19:56;;;;;;;24.07;14.00;;;;;;;8.51;85.79;97592.84;1716808;80;21242;-91
2021/03/15 07:22:29;;;;;;;25.45;14.47;;;;;;;8.59;85.23;97600.77;1732240;82;21597;-92
2021/03/15 07:25:13;;;;;;;27.30;14.80;;;;;;;8.55;85.06;97604.80;1692479;80;21192;-89
2021/03/15 07:27:44;;;;;;;30.15;16.15;;;;;;;8.55;85.02;97599.62;1686710;82;21297;-89
2021/03/15 07:30:36;;;;;;;29.80;17.55;;;;;;;8.56;84.92;97599.98;1659857;83;21192;-90
2021/03/15 07:33:13;;;;;;;29.12;14.43;;;;;;;8.61;85.04;97594.61;1730678;80;21140;-88
2021/03/15 07:35:52;;;;;;;28.55;14.73;;;;;;;8.68;84.33;97592.17;1804133;79;23065;-91
2021/03/15 07:38:32;;;;;;;28.75;14.20;;;;;;;8.69;84.61;97594.30;1795068;79;21330;-92
2021/03/15 07:41:23;;;;;;;25.75;13.55;;;;;;;8.74;84.58;97594.50;1720300;80;21809;-92
2021/03/15 07:43:53;;;;;;;23.30;12.73;;;;;;;8.78;84.15;97603.00;1614246;88;21196;-92
2021/03/15 07:52:15;;;;;;;23.45;12.50;;;;;;;8.94;83.96;97595.42;1702781;82;21148;-92
2021/03/15 07:54:44;;;;;;;25.65;14.15;;;;;;;9.02;83.98;97607.59;1715111;82;21294;-91
2021/03/15 07:57:24;;;;;;;26.87;14.40;;;;;;;8.99;83.59;97607.72;1690215;84;21292;-80
2021/03/15 07:59:54;;;;;;;33.10;17.52;;;;;;;8.96;83.34;97604.80;1716120;82;21208;-82
2021/03/15 08:02:36;;;;;;;27.73;16.62;;;;;;;8.96;83.60;97607.86;1733745;81;21316;-85
2021/03/15 08:05:06;;;;;;;25.62;13.05;;;;;;;8.97;83.30;97604.34;1704175;84;21129;-83
2021/03/15 08:07:33;;;;;;;28.55;16.35;;;;;;;8.93;83.24;97604.09;1725112;81;21383;-84
2021/03/15 08:10:01;;;;;;;32.48;18.30;;;;;;;8.89;83.18;97598.64;1784514;78;21275;-93
2021/03/15 08:12:38;;;;;;;38.53;20.97;;;;;;;8.92;83.41;97603.25;1712736;80;22435;-92
2021/03/15 08:15:09;;;;;;;85.10;22.50;;;;;;;8.91;83.46;97601.59;1719281;82;21224;-84
2021/03/15 08:17:44;;;;;;;104.17;27.05;;;;;;;8.88;83.07;97599.57;1705742;80;21130;-85
2021/03/15 08:20:14;;;;;;;57.78;21.97;;;;;;;8.86;84.14;97593.15;1692073;81;21143;-90
2021/03/15 08:22:45;;;;;;;71.62;29.05;;;;;;;8.88;83.78;97587.45;1710517;79;21491;-94
2021/03/15 08:31:30;;;;;;;31.97;15.83;;;;;;;9.00;83.58;97593.03;1700063;84;21302;-95
2021/03/15 08:34:01;;;;;;;62.88;26.23;;;;;;;9.01;83.29;97585.16;1697863;80;21304;-93
2021/03/15 08:36:51;;;;;;;;;;;;;;;8.98;83.69;97586.61;1742306;80;21321;-91
2021/03/15 08:39:42;;;;;;;33.98;17.80;;;;;;;9.02;83.48;97580.38;1653717;86;20284;-91
2021/03/15 08:42:36;;;;;;;32.80;18.42;;;;;;;9.06;83.26;97576.74;1784924;79;21248;-91
2021/03/15 08:50:57;;;;;;;42.10;22.22;;;;;;;9.12;83.45;97567.86;1681083;83;21298;-88
2021/03/15 08:53:51;;;;;;;51.45;28.02;;;;;;;9.20;82.68;97570.13;1676532;86;21201;-85
2021/03/15 09:05:25;;;;;;;30.45;15.68;;;;;;;9.26;82.40;97552.53;1810384;77;21314;-87
2021/03/15 09:08:00;;;;;;;29.72;14.43;;;;;;;9.35;82.70;97543.48;1786631;76;21333;-89
2021/03/15 09:10:47;;;;;;;26.77;14.33;;;;;;;9.43;82.80;97543.15;1697408;80;21181;-93
2021/03/15 09:13:22;;;;;;;24.35;13.72;;;;;;;9.42;82.23;97536.30;1667071;84;21626;-91
2021/03/15 09:15:59;;;;;;;26.95;15.50;;;;;;;9.47;82.18;97526.53;1718887;80;21319;-89
2021/03/15 09:18:49;;;;;;;33.95;17.45;;;;;;;9.50;81.12;97529.00;1759200;79;21132;-93
2021/03/15 09:21:41;;;;;;;29.40;16.35;;;;;;;9.58;81.61;97523.47;1716606;81;21322;-91
2021/03/15 09:24:51;;;;;;;31.77;17.77;;;;;;;9.60;81.11;97515.16;1713405;81;21155;-91
2021/03/15 09:27:34;;;;;;;38.05;20.55;;;;;;;9.65;81.09;97519.22;1726332;80;21720;-91
2021/03/15 09:30:23;;;;;;;28.65;14.63;;;;;;;9.65;80.94;97522.25;1718769;80;21309;-90
2021/03/15 09:32:57;;;;;;;114.97;50.43;;;;;;;9.53;80.91;97512.84;1746207;81;21326;-92
2021/03/15 09:35:40;;;;;;;36.65;17.48;;;;;;;9.49;81.11;97506.55;1788007;79;21133;-91
2021/03/15 09:38:12;;;;;;;49.27;25.15;;;;;;;9.26;81.44;97486.41;1789593;78;22437;-92
2021/03/15 09:40:49;;;;;;;39.70;21.35;;;;;;;9.35;81.49;97516.26;1714117;81;21199;-92
2021/03/15 09:43:23;;;;;;;38.38;19.87;;;;;;;9.46;81.18;97506.70;1774956;79;21141;-85
2021/03/15 09:46:03;;;;;;;34.10;16.48;;;;;;;9.43;82.00;97512.02;1717867;79;21195;-92
2021/03/15 09:48:33;;;;;;;39.48;19.15;;;;;;;9.46;81.78;97515.79;1707450;83;21185;-87
2021/03/15 09:51:04;;;;;;;30.23;15.58;;;;;;;9.46;82.38;97518.38;1714601;81;21284;-92
2021/03/15 09:54:07;;;;;;;30.80;16.10;;;;;;;9.58;81.92;97510.49;1743477;80;21275;-94
2021/03/15 09:56:42;;;;;;;33.53;19.17;;;;;;;9.60;82.07;97512.56;1712706;80;21194;-85
2021/03/15 09:59:12;;;;;;;39.03;18.60;;;;;;;9.62;81.99;97510.27;1706666;81;21223;-85
2021/03/15 10:01:50;;;;;;;32.20;18.10;;;;;;;9.66;81.98;97509.21;1873706;75;22900;-90
2021/03/15 10:04:39;;;;;;;30.32;16.77;;;;;;;9.64;82.01;97516.23;1846512;75;21202;-87
2021/03/15 10:07:26;;;;;;;32.73;18.52;;;;;;;9.65;82.10;97517.92;1851108;77;21098;-85
2021/03/15 10:10:17;;;;;;;44.35;20.77;;;;;;;9.67;81.68;97523.88;1776902;79;22091;-92
2021/03/15 10:16:05;;;;;;;32.55;18.12;;;;;;;9.80;81.18;97515.52;1635775;86;21510;-90
2021/03/15 10:18:53;;;;;;;31.30;17.07;;;;;;;9.79;81.05;97512.52;1633818;83;21266;-86
2021/03/15 10:22:18;;;;;;;27.80;15.53;;;;;;;9.76;81.28;97516.11;1635519;86;21147;-86
2021/03/15 10:24:51;;;;;;;30.00;14.10;;;;;;;9.80;81.10;97513.76;1610946;86;21315;-83
2021/03/15 10:27:24;;;;;;;36.17;17.60;;;;;;;9.81;80.17;97497.72;1630254;86;21309;-84
2021/03/15 10:29:55;;;;;;;28.30;14.43;;;;;;;9.87;80.08;97499.59;1666749;85;21178;-85
2021/03/15 10:32:29;;;;;;;27.98;14.10;;;;;;;9.99;80.43;97492.97;1661714;85;21315;-85
2021/03/15 10:35:02;;;;;;;25.35;14.25;;;;;;;10.07;80.15;97486.11;1663490;86;21584;-85
2021/03/15 10:37:38;;;;;;;29.27;13.62;;;;;;;10.09;79.74;97483.81;1663615;84;21316;-86
2021/03/15 10:40:12;;;;;;;28.38;14.93;;;;;;;10.20;80.39;97479.84;1633036;86;22559;-84
2021/03/15 10:42:40;;;;;;;31.62;17.73;;;;;;;10.27;79.44;97481.23;1666450;85;21186;-83
2021/03/15 10:45:12;;;;;;;26.15;16.07;;;;;;;10.42;79.26;97472.69;1678466;85;21162;-85
2021/03/15 10:47:42;;;;;;;27.65;14.43;;;;;;;10.58;78.08;97475.34;1674070;85;21162;-84
2021/03/15 10:50:38;;;;;;;27.40;14.85;;;;;;;10.59;78.69;97468.41;1670088;85;21771;-84
2021/03/15 10:53:19;;;;;;;28.87;15.75;;;;;;;10.71;78.04;97471.67;1804447;78;22874;-85
2021/03/15 10:55:49;;;;;;;26.73;14.90;;;;;;;10.68;76.63;97471.38;1792735;80;21251;-84
2021/03/15 10:58:21;;;;;;;26.37;15.18;;;;;;;10.82;77.04;97469.81;1777052;80;21301;-83
2021/03/15 11:01:07;;;;;;;33.28;19.30;;;;;;;10.97;76.13;97462.98;1793503;77;28732;-85
2021/03/15 11:03:36;;;;;;;35.78;18.70;;;;;;;11.06;76.40;97467.23;1787803;79;21768;-84
2021/03/15 11:06:19;;;;;;;27.27;15.90;;;;;;;10.89;76.03;97451.22;1774357;80;21259;-83
2021/03/15 11:08:58;;;;;;;27.35;14.13;;;;;;;10.99;76.03;97452.04;1775009;79;21176;-82
2021/03/15 11:11:29;;;;;;;25.97;14.98;;;;;;;10.93;75.78;97445.39;1779310;79;21171;-84
2021/03/15 11:14:11;;;;;;;27.30;15.35;;;;;;;10.89;76.33;97438.69;1787383;78;22803;-85
2021/03/15 11:16:41;;;;;;;22.17;13.75;;;;;;;10.64;75.95;97433.91;1750228;80;21322;-94
2021/03/15 11:19:13;;;;;;;22.15;13.93;;;;;;;10.69;75.35;97438.43;1677233;80;21169;-90
2021/03/15 11:21:47;;;;;;;26.48;14.58;;;;;;;10.52;75.70;97434.95;1749242;79;21477;-88
2021/03/15 11:24:28;;;;;;;22.65;13.50;;;;;;;10.50;75.52;97430.30;1831240;76;23027;-90
2021/03/15 11:27:04;;;;;;;26.85;15.15;;;;;;;10.33;76.00;97427.70;1794748;77;21100;-91
2021/03/15 11:29:42;;;;;;;27.02;15.05;;;;;;;10.26;76.88;97424.53;1786496;76;21308;-92
2021/03/15 11:32:19;;;;;;;26.62;14.83;;;;;;;10.30;76.78;97425.25;1718629;79;21150;-91
2021/03/15 11:34:52;;;;;;;29.10;15.08;;;;;;;10.32;76.72;97426.02;1683804;84;21307;-85
2021/03/15 11:37:32;;;;;;;27.13;13.53;;;;;;;10.27;77.46;97414.53;1673275;82;21173;-85
2021/03/15 11:40:00;;;;;;;31.50;15.58;;;;;;;10.14;77.26;97382.30;1680023;84;21315;-85
2021/03/15 11:42:31;;;;;;;27.22;14.63;;;;;;;10.36;77.13;97401.55;1664146;85;21146;-83
2021/03/15 11:45:04;;;;;;;24.52;12.10;;;;;;;10.34;77.12;97398.20;1748129;79;21295;-86
2021/03/15 11:47:31;;;;;;;25.52;13.62;;;;;;;10.38;77.32;97392.39;1721232;78;21142;-91
2021/03/15 11:50:08;;;;;;;23.45;13.20;;;;;;;10.41;77.46;97393.55;1729383;81;21597;-95
2021/03/15 11:52:40;;;;;;;23.20;14.05;;;;;;;10.42;77.05;97393.45;1708958;80;21316;-94
2021/03/15 11:55:21;;;;;;;29.35;15.30;;;;;;;10.45;76.85;97392.47;1682852;83;21301;-91
2021/03/15 11:57:49;;;;;;;23.15;13.90;;;;;;;10.45;76.97;97382.91;1721105;82;21499;-92
2021/03/15 12:03:07;;;;;;;25.65;14.00;;;;;;;10.50;76.36;97377.46;1691472;83;21311;-90
2021/03/15 12:05:45;;;;;;;24.52;14.07;;;;;;;10.48;76.57;97369.74;1835325;76;23065;-87
2021/03/15 12:08:14;;;;;;;21.73;13.60;;;;;;;10.50;76.63;97371.83;1813299;77;21605;-92
2021/03/15 12:10:43;;;;;;;22.37;12.73;;;;;;;10.50;76.26;97364.47;1815175;77;21164;-85
2021/03/15 12:13:12;;;;;;;21.02;12.70;;;;;;;10.48;75.61;97360.65;1812862;78;21263;-84
2021/03/15 12:15:41;;;;;;;21.65;10.95;;;;;;;10.57;75.65;97354.62;1797951;75;21164;-86
2021/03/15 12:18:10;;;;;;;21.85;11.97;;;;;;;10.52;75.78;97360.03;1761629;80;21264;-84
2021/03/15 12:20:42;;;;;;;23.60;12.80;;;;;;;10.58;75.65;97354.98;1748489;80;21162;-92
2021/03/15 12:23:12;;;;;;;28.70;13.65;;;;;;;10.60;76.21;97347.94;1751052;80;21182;-89
2021/03/15 12:25:41;;;;;;;28.15;11.88;;;;;;;10.60;76.28;97345.34;1776280;79;21162;-91
2021/03/15 12:28:19;;;;;;;20.45;11.88;;;;;;;10.72;76.04;97345.55;1770820;79;21280;-85
2021/03/15 12:30:49;;;;;;;24.65;13.55;;;;;;;10.64;74.87;97345.09;1773011;79;21099;-89
2021/03/15 12:33:17;;;;;;;27.75;12.73;;;;;;;10.65;75.34;97341.58;1722710;82;22420;-90
2021/03/15 12:35:45;;;;;;;25.08;14.23;;;;;;;10.67;75.12;97342.81;1721870;81;21135;-91